Time;durP1;ratioP1;P1;durP2;ratioP2;P2;SDS_P1;SDS_P2;PMS_P1;PMS_P2;Temp;Humidity;BMP_temperature;BMP_pressure;BME280_temperature;BME280_humidity;BME280_pressure;Samples;Min_cycle;Max_cycle;Signal;HPM_P1;HPM_P2
2023/01/06 00:01:07;;;;;;;18.67;4.18;;;;;;;;;;5050817;28;20372;-74
2023/01/06 00:03:34;;;;;;;21.92;4.18;;;;;;;;;;5065127;28;20172;-74
2023/01/06 00:06:00;;;;;;;15.68;3.80;;;;;;;;;;5062736;28;20126;-74
2023/01/06 00:08:26;;;;;;;20.75;4.32;;;;;;;;;;5050706;28;20448;-74
2023/01/06 00:10:53;;;;;;;14.25;3.58;;;;;;;;;;5052216;28;20045;-74
2023/01/06 00:13:19;;;;;;;18.05;3.92;;;;;;;;;;5038289;28;20384;-73
2023/01/06 00:15:45;;;;;;;16.98;3.92;;;;;;;;;;5036591;28;20052;-74
2023/01/06 00:18:11;;;;;;;15.30;3.53;;;;;;;;;;5045247;28;20561;-74
2023/01/06 00:20:37;;;;;;;18.35;4.57;;;;;;;;;;5038447;28;20040;-74
2023/01/06 00:23:04;;;;;;;12.95;3.35;;;;;;;;;;5041040;28;20086;-74
2023/01/06 00:25:30;;;;;;;13.98;3.45;;;;;;;;;;5037693;28;20040;-74
2023/01/06 00:27:56;;;;;;;16.00;3.75;;;;;;;;;;5036508;28;20124;-74
2023/01/06 00:30:22;;;;;;;11.20;3.28;;;;;;;;;;5034195;28;20049;-74
2023/01/06 00:32:50;;;;;;;13.25;3.40;;;;;;;;;;5034653;28;20146;-74
2023/01/06 00:35:16;;;;;;;12.18;3.50;;;;;;;;;;5036357;28;20191;-74
2023/01/06 00:37:42;;;;;;;12.38;3.25;;;;;;;;;;5035308;28;20075;-73
2023/01/06 00:40:08;;;;;;;18.35;4.38;;;;;;;;;;5035613;28;20087;-73
2023/01/06 00:42:34;;;;;;;19.52;3.92;;;;;;;;;;5034452;28;20052;-74
2023/01/06 00:45:00;;;;;;;14.82;3.45;;;;;;;;;;5037285;28;20056;-74
2023/01/06 00:47:26;;;;;;;15.85;4.30;;;;;;;;;;5040776;28;20128;-73
2023/01/06 00:49:52;;;;;;;17.50;3.97;;;;;;;;;;5034688;28;20095;-74
2023/01/06 00:52:18;;;;;;;15.02;4.53;;;;;;;;;;5036273;28;20140;-74
2023/01/06 00:54:44;;;;;;;19.75;4.55;;;;;;;;;;5051091;28;20048;-74
2023/01/06 00:57:10;;;;;;;16.35;4.20;;;;;;;;;;5049267;28;20044;-74
2023/01/06 00:59:36;;;;;;;12.93;4.47;;;;;;;;;;5050131;28;20098;-74
2023/01/06 01:02:02;;;;;;;17.85;3.97;;;;;;;;;;5044418;28;20078;-74
2023/01/06 01:04:28;;;;;;;17.27;4.10;;;;;;;;;;5066556;28;20052;-74
2023/01/06 01:06:55;;;;;;;17.48;4.53;;;;;;;;;;5036311;28;20042;-74
2023/01/06 01:09:22;;;;;;;18.10;3.88;;;;;;;;;;5040443;28;20048;-74
2023/01/06 01:14:34;;;;;;;16.40;4.97;;;;;;;;;;5036003;28;20049;-74
2023/01/06 01:17:00;;;;;;;19.73;4.13;;;;;;;;;;5038017;28;20044;-74
2023/01/06 01:19:26;;;;;;;14.05;3.50;;;;;;;;;;5034749;28;20052;-74
2023/01/06 01:21:52;;;;;;;14.77;3.83;;;;;;;;;;5031879;28;20040;-74
2023/01/06 01:24:19;;;;;;;16.75;3.50;;;;;;;;;;5036236;28;20498;-73
2023/01/06 01:26:45;;;;;;;13.77;3.67;;;;;;;;;;5032679;28;20049;-74
2023/01/06 01:29:12;;;;;;;12.18;3.80;;;;;;;;;;5032559;28;20041;-74
2023/01/06 01:31:38;;;;;;;13.10;3.50;;;;;;;;;;5035461;28;20049;-74
2023/01/06 01:34:04;;;;;;;11.07;2.60;;;;;;;;;;5030793;28;20105;-74
2023/01/06 01:36:30;;;;;;;15.60;3.35;;;;;;;;;;5035358;28;20054;-73
2023/01/06 01:38:57;;;;;;;15.32;4.20;;;;;;;;;;5031606;28;20050;-73
2023/01/06 01:41:24;;;;;;;8.35;2.70;;;;;;;;;;5037101;28;21295;-74
2023/01/06 01:43:54;;;;;;;12.43;3.30;;;;;;;;;;5031593;28;20172;-74
2023/01/06 01:46:27;;;;;;;10.55;2.80;;;;;;;;;;5031398;28;20087;-74
2023/01/06 01:48:54;;;;;;;14.85;3.63;;;;;;;;;;5047761;28;20067;-74
2023/01/06 01:51:22;;;;;;;13.07;3.03;;;;;;;;;;5046480;28;20396;-73
2023/01/06 01:53:51;;;;;;;14.07;3.55;;;;;;;;;;5051550;28;20048;-74
2023/01/06 01:56:20;;;;;;;12.63;2.75;;;;;;;;;;5038232;28;20127;-74
2023/01/06 01:58:49;;;;;;;14.00;3.08;;;;;;;;;;5047305;28;22374;-74
2023/01/06 02:01:15;;;;;;;11.70;3.00;;;;;;;;;;5049113;28;20572;-74
2023/01/06 02:03:41;;;;;;;10.55;3.05;;;;;;;;;;5076874;28;20057;-74
2023/01/06 02:06:11;;;;;;;8.70;2.70;;;;;;;;;;5039971;28;20407;-74
2023/01/06 02:08:39;;;;;;;11.55;3.20;;;;;;;;;;5039804;28;20042;-74
2023/01/06 02:11:06;;;;;;;11.85;2.60;;;;;;;;;;5035843;28;20052;-74
2023/01/06 02:13:33;;;;;;;6.78;2.40;;;;;;;;;;5052946;28;20123;-73
2023/01/06 02:16:05;;;;;;;7.65;2.80;;;;;;;;;;5036172;28;20045;-74
2023/01/06 02:18:36;;;;;;;13.27;2.78;;;;;;;;;;5038190;28;20492;-73
2023/01/06 02:21:02;;;;;;;7.57;2.80;;;;;;;;;;5035920;28;20033;-73
2023/01/06 02:23:47;;;;;;;7.68;2.90;;;;;;;;;;5045013;28;22006;-74
2023/01/06 02:26:49;;;;;;;6.75;2.53;;;;;;;;;;5040440;28;20375;-74
2023/01/06 02:29:27;;;;;;;10.50;2.40;;;;;;;;;;5011663;28;20065;-74
2023/01/06 02:31:58;;;;;;;8.18;2.40;;;;;;;;;;5060801;28;20441;-74
2023/01/06 02:34:43;;;;;;;8.73;2.47;;;;;;;;;;5034132;28;20605;-74
2023/01/06 02:37:09;;;;;;;9.43;3.25;;;;;;;;;;5039102;28;20045;-74
2023/01/06 02:39:41;;;;;;;9.80;2.88;;;;;;;;;;5037002;28;20049;-74
2023/01/06 02:42:16;;;;;;;7.10;2.03;;;;;;;;;;5039194;28;20545;-74
2023/01/06 02:45:01;;;;;;;8.77;2.15;;;;;;;;;;5043276;28;20045;-74
2023/01/06 02:47:47;;;;;;;6.78;2.33;;;;;;;;;;5042000;28;20045;-73
2023/01/06 02:50:36;;;;;;;8.73;2.95;;;;;;;;;;5037829;28;20064;-73
2023/01/06 02:53:17;;;;;;;7.93;2.53;;;;;;;;;;5042316;28;20107;-73
2023/01/06 02:55:48;;;;;;;9.40;3.40;;;;;;;;;;5063110;28;20044;-73
2023/01/06 02:58:33;;;;;;;7.20;3.45;;;;;;;;;;5054553;28;20053;-73
2023/01/06 03:01:02;;;;;;;8.68;3.80;;;;;;;;;;5057784;28;20036;-73
2023/01/06 03:03:30;;;;;;;10.80;3.72;;;;;;;;;;5044136;28;20119;-73
2023/01/06 03:05:58;;;;;;;8.73;3.50;;;;;;;;;;5036953;28;20041;-73
2023/01/06 03:08:28;;;;;;;9.05;3.58;;;;;;;;;;5037874;28;20053;-73
2023/01/06 03:10:54;;;;;;;10.65;3.55;;;;;;;;;;5035645;28;20041;-73
2023/01/06 03:13:24;;;;;;;9.35;3.08;;;;;;;;;;5037754;28;20133;-74
2023/01/06 03:15:50;;;;;;;8.73;3.10;;;;;;;;;;5034290;28;20059;-74
2023/01/06 03:18:17;;;;;;;7.45;3.15;;;;;;;;;;5034339;28;20124;-74
2023/01/06 03:20:43;;;;;;;6.88;2.90;;;;;;;;;;5033178;28;20042;-74
2023/01/06 03:23:09;;;;;;;3.80;2.88;;;;;;;;;;5034133;28;20041;-74
2023/01/06 03:25:37;;;;;;;5.53;3.10;;;;;;;;;;5034224;28;20053;-74
2023/01/06 03:28:03;;;;;;;5.35;2.95;;;;;;;;;;5035821;28;20590;-74
2023/01/06 03:30:33;;;;;;;6.43;3.50;;;;;;;;;;5035671;28;20825;-74
2023/01/06 03:33:03;;;;;;;9.48;3.60;;;;;;;;;;5036129;28;20078;-74
2023/01/06 03:35:48;;;;;;;5.30;3.10;;;;;;;;;;5037519;28;20063;-74
2023/01/06 03:38:34;;;;;;;6.57;3.47;;;;;;;;;;5035764;28;20056;-74
2023/01/06 03:41:06;;;;;;;7.78;3.95;;;;;;;;;;5034141;28;20191;-74
2023/01/06 03:43:43;;;;;;;6.53;3.80;;;;;;;;;;5036995;28;20094;-74
2023/01/06 03:46:22;;;;;;;7.90;4.10;;;;;;;;;;5038466;28;20044;-74
2023/01/06 03:48:54;;;;;;;7.70;5.43;;;;;;;;;;5034771;28;20076;-73
2023/01/06 03:51:29;;;;;;;7.80;5.75;;;;;;;;;;5037575;28;20041;-73
2023/01/06 03:54:01;;;;;;;11.57;6.00;;;;;;;;;;5033455;28;20103;-73
2023/01/06 03:56:30;;;;;;;7.88;5.50;;;;;;;;;;5034992;28;20048;-73
2023/01/06 03:59:02;;;;;;;9.90;5.75;;;;;;;;;;5034610;28;20052;-73
2023/01/06 04:01:29;;;;;;;10.80;6.53;;;;;;;;;;5037648;28;20060;-73
2023/01/06 04:03:55;;;;;;;8.40;5.72;;;;;;;;;;5033793;28;20315;-73
2023/01/06 04:06:22;;;;;;;8.07;5.57;;;;;;;;;;5045663;28;20052;-73
2023/01/06 04:08:48;;;;;;;6.15;4.85;;;;;;;;;;5036569;28;20095;-73
2023/01/06 04:13:59;;;;;;;7.88;5.30;;;;;;;;;;5064110;28;20489;-73
2023/01/06 04:16:25;;;;;;;7.32;5.30;;;;;;;;;;5035537;28;21626;-73
2023/01/06 04:18:51;;;;;;;8.48;5.90;;;;;;;;;;5036927;28;20059;-73
2023/01/06 04:21:18;;;;;;;8.00;5.60;;;;;;;;;;5034608;28;20049;-73
2023/01/06 04:23:44;;;;;;;6.28;5.20;;;;;;;;;;5034176;28;20038;-73
2023/01/06 04:26:10;;;;;;;7.90;5.18;;;;;;;;;;5036193;28;20685;-73
2023/01/06 04:28:36;;;;;;;7.68;4.80;;;;;;;;;;5034082;28;20049;-73
2023/01/06 04:31:02;;;;;;;11.30;5.15;;;;;;;;;;5035969;28;20040;-73
2023/01/06 04:33:28;;;;;;;6.57;4.45;;;;;;;;;;5034615;28;20134;-74
2023/01/06 04:35:54;;;;;;;5.13;3.92;;;;;;;;;;5031665;28;20095;-73
2023/01/06 04:38:20;;;;;;;7.47;4.10;;;;;;;;;;5033048;28;20514;-73
2023/01/06 04:40:46;;;;;;;7.40;4.35;;;;;;;;;;5036984;28;20167;-73
2023/01/06 04:43:15;;;;;;;6.75;4.20;;;;;;;;;;5033594;28;20052;-73
2023/01/06 04:45:41;;;;;;;7.85;4.20;;;;;;;;;;5038226;28;20045;-73
2023/01/06 04:48:08;;;;;;;5.30;3.67;;;;;;;;;;5032716;28;20052;-73
2023/01/06 04:50:34;;;;;;;6.70;3.78;;;;;;;;;;5033697;28;20049;-73
2023/01/06 04:53:00;;;;;;;5.57;3.08;;;;;;;;;;5031921;28;20488;-73
2023/01/06 04:55:26;;;;;;;7.18;3.08;;;;;;;;;;5051064;28;20056;-73
2023/01/06 04:57:52;;;;;;;6.03;3.40;;;;;;;;;;5039389;28;20128;-73
2023/01/06 05:00:18;;;;;;;7.53;3.88;;;;;;;;;;5046192;28;20115;-73
2023/01/06 05:02:44;;;;;;;7.05;3.92;;;;;;;;;;5030567;28;20100;-73
2023/01/06 05:05:10;;;;;;;7.20;4.18;;;;;;;;;;5035885;28;20073;-73
2023/01/06 05:07:36;;;;;;;4.60;3.60;;;;;;;;;;5033962;28;20037;-73
2023/01/06 05:10:03;;;;;;;7.68;3.80;;;;;;;;;;5042107;28;20262;-73
2023/01/06 05:12:30;;;;;;;9.50;3.45;;;;;;;;;;5033452;28;20049;-73
2023/01/06 05:14:56;;;;;;;7.68;4.03;;;;;;;;;;5042525;28;20045;-73
2023/01/06 05:17:22;;;;;;;5.65;3.90;;;;;;;;;;5040453;28;20118;-73
2023/01/06 05:19:48;;;;;;;6.05;3.83;;;;;;;;;;5032062;28;20048;-73
2023/01/06 05:22:14;;;;;;;6.82;3.80;;;;;;;;;;5037523;28;20052;-73
2023/01/06 05:24:40;;;;;;;8.35;3.75;;;;;;;;;;5030829;28;20091;-73
2023/01/06 05:27:06;;;;;;;9.38;3.95;;;;;;;;;;5033365;28;20042;-73
2023/01/06 05:29:33;;;;;;;10.00;4.38;;;;;;;;;;5034022;28;20473;-73
2023/01/06 05:31:59;;;;;;;5.45;3.72;;;;;;;;;;5031178;28;20049;-73
2023/01/06 05:34:25;;;;;;;7.75;3.90;;;;;;;;;;5034310;28;20053;-73
2023/01/06 05:36:51;;;;;;;8.02;4.80;;;;;;;;;;5031687;28;20306;-73
2023/01/06 05:39:17;;;;;;;7.72;3.53;;;;;;;;;;5031183;28;20527;-73
2023/01/06 05:41:43;;;;;;;6.63;4.45;;;;;;;;;;5065474;28;20152;-73
2023/01/06 05:44:09;;;;;;;5.63;3.08;;;;;;;;;;5033647;28;20081;-73
2023/01/06 05:46:35;;;;;;;9.38;4.10;;;;;;;;;;5040307;28;20503;-73
2023/01/06 05:49:02;;;;;;;6.85;3.58;;;;;;;;;;5036098;28;20064;-73
2023/01/06 05:51:28;;;;;;;9.13;3.80;;;;;;;;;;5033586;28;20053;-73
2023/01/06 05:53:54;;;;;;;7.65;3.72;;;;;;;;;;5029844;28;20056;-73
2023/01/06 05:56:20;;;;;;;14.15;3.95;;;;;;;;;;5041068;28;20195;-73
2023/01/06 05:58:47;;;;;;;6.40;3.30;;;;;;;;;;5038860;28;20048;-73
2023/01/06 06:01:15;;;;;;;11.27;4.15;;;;;;;;;;5038498;28;20480;-73
2023/01/06 06:03:41;;;;;;;8.43;3.80;;;;;;;;;;5037854;28;20068;-73
2023/01/06 06:06:07;;;;;;;6.78;3.55;;;;;;;;;;5044728;28;20665;-73
2023/01/06 06:08:33;;;;;;;9.63;4.25;;;;;;;;;;5035883;28;20384;-73
2023/01/06 06:11:03;;;;;;;10.95;3.53;;;;;;;;;;5035374;28;20613;-73
2023/01/06 06:13:29;;;;;;;12.27;3.78;;;;;;;;;;5036906;28;20450;-73
2023/01/06 06:16:09;;;;;;;12.75;3.17;;;;;;;;;;5034863;28;20049;-73
2023/01/06 06:18:41;;;;;;;6.63;3.38;;;;;;;;;;5040535;28;20095;-73
2023/01/06 06:21:07;;;;;;;9.38;3.30;;;;;;;;;;5037270;28;20135;-72
2023/01/06 06:23:33;;;;;;;14.43;3.95;;;;;;;;;;5038485;28;20081;-72
2023/01/06 06:25:59;;;;;;;10.02;3.90;;;;;;;;;;5040599;28;20045;-73
2023/01/06 06:28:25;;;;;;;16.60;3.88;;;;;;;;;;5033261;28;20524;-73
2023/01/06 06:30:52;;;;;;;8.93;3.28;;;;;;;;;;5038239;28;20548;-73
2023/01/06 06:33:18;;;;;;;14.63;3.63;;;;;;;;;;5042766;28;20388;-73
2023/01/06 06:35:44;;;;;;;17.98;5.15;;;;;;;;;;5037335;28;20053;-72
2023/01/06 06:38:10;;;;;;;21.70;5.40;;;;;;;;;;5036371;28;20132;-72
2023/01/06 06:40:36;;;;;;;12.95;3.30;;;;;;;;;;5034616;28;20541;-72
2023/01/06 06:43:02;;;;;;;12.10;3.03;;;;;;;;;;5036461;28;20048;-72
2023/01/06 06:45:28;;;;;;;14.98;2.95;;;;;;;;;;5037370;28;20041;-72
2023/01/06 06:47:54;;;;;;;14.10;2.90;;;;;;;;;;5038080;28;20366;-72
2023/01/06 06:50:20;;;;;;;13.65;2.67;;;;;;;;;;5047472;28;20048;-72
2023/01/06 06:52:46;;;;;;;10.90;3.10;;;;;;;;;;5044999;28;20140;-71
2023/01/06 06:55:12;;;;;;;15.27;3.38;;;;;;;;;;5056951;28;20511;-72
2023/01/06 06:57:38;;;;;;;11.50;3.03;;;;;;;;;;5055705;28;20404;-72
2023/01/06 07:00:04;;;;;;;14.75;2.95;;;;;;;;;;5055847;28;20049;-72
2023/01/06 07:02:30;;;;;;;13.75;3.00;;;;;;;;;;5049584;28;20127;-72
2023/01/06 07:04:56;;;;;;;14.82;3.40;;;;;;;;;;5050320;28;20558;-72
2023/01/06 07:07:22;;;;;;;16.13;3.55;;;;;;;;;;5043831;28;20038;-72
2023/01/06 07:09:48;;;;;;;21.33;3.88;;;;;;;;;;5036590;28;20041;-72
2023/01/06 07:12:14;;;;;;;16.77;3.70;;;;;;;;;;5032964;28;20387;-72
2023/01/06 07:14:40;;;;;;;15.57;3.15;;;;;;;;;;5033933;28;20098;-72
2023/01/06 07:17:06;;;;;;;17.90;3.75;;;;;;;;;;5036868;28;20049;-72
2023/01/06 07:19:32;;;;;;;16.08;3.58;;;;;;;;;;5037284;28;20404;-72
2023/01/06 07:21:58;;;;;;;15.90;3.08;;;;;;;;;;5039332;28;20037;-72
2023/01/06 07:24:24;;;;;;;14.65;3.30;;;;;;;;;;5037764;28;21143;-72
2023/01/06 07:26:50;;;;;;;15.80;3.13;;;;;;;;;;5032195;28;20050;-72
2023/01/06 07:29:16;;;;;;;14.25;3.08;;;;;;;;;;5036164;28;20042;-72
2023/01/06 07:31:42;;;;;;;18.05;3.10;;;;;;;;;;5035808;28;20045;-72
2023/01/06 07:34:08;;;;;;;14.73;3.45;;;;;;;;;;5043119;28;20048;-72
2023/01/06 07:36:34;;;;;;;19.58;3.65;;;;;;;;;;5038548;28;20080;-72
2023/01/06 07:39:00;;;;;;;16.42;3.50;;;;;;;;;;5032818;28;21713;-72
2023/01/06 07:41:26;;;;;;;14.98;3.25;;;;;;;;;;5036874;28;20101;-72
2023/01/06 07:43:52;;;;;;;13.73;3.45;;;;;;;;;;5033200;28;20053;-72
2023/01/06 07:46:18;;;;;;;12.85;2.95;;;;;;;;;;5034793;28;20037;-73
2023/01/06 07:48:44;;;;;;;16.40;4.40;;;;;;;;;;5043514;28;20061;-72
2023/01/06 07:51:10;;;;;;;20.58;4.47;;;;;;;;;;5053248;28;20044;-73
2023/01/06 07:53:36;;;;;;;17.25;4.00;;;;;;;;;;5053937;28;20128;-73
2023/01/06 07:56:02;;;;;;;16.95;3.47;;;;;;;;;;5059004;28;20071;-73
2023/01/06 07:58:28;;;;;;;17.23;3.60;;;;;;;;;;5052000;28;20518;-73
2023/01/06 08:00:54;;;;;;;15.32;4.55;;;;;;;;;;5049997;28;20091;-73
2023/01/06 08:03:20;;;;;;;18.92;3.97;;;;;;;;;;5050552;28;20049;-73
2023/01/06 08:05:46;;;;;;;12.45;3.33;;;;;;;;;;5042597;28;20053;-73
2023/01/06 08:08:12;;;;;;;15.20;3.33;;;;;;;;;;5049135;28;20056;-73
2023/01/06 08:10:39;;;;;;;17.58;3.42;;;;;;;;;;5040941;28;20041;-73
2023/01/06 08:13:05;;;;;;;14.68;3.28;;;;;;;;;;5035523;28;20094;-74
2023/01/06 08:15:31;;;;;;;14.23;3.42;;;;;;;;;;5034596;28;20139;-74
2023/01/06 08:17:57;;;;;;;14.88;3.90;;;;;;;;;;5034860;28;20091;-73
2023/01/06 08:20:23;;;;;;;14.57;3.15;;;;;;;;;;5038306;28;20041;-73
2023/01/06 08:22:49;;;;;;;13.52;3.50;;;;;;;;;;5043268;28;20072;-74
2023/01/06 08:25:15;;;;;;;13.23;2.65;;;;;;;;;;5036860;28;20488;-73
2023/01/06 08:27:41;;;;;;;11.55;2.67;;;;;;;;;;5029888;28;20120;-73
2023/01/06 08:30:08;;;;;;;11.10;2.75;;;;;;;;;;5035934;28;20152;-74
2023/01/06 08:32:34;;;;;;;12.57;3.40;;;;;;;;;;5050184;28;20503;-74
2023/01/06 08:35:00;;;;;;;17.60;3.10;;;;;;;;;;5036773;28;20408;-74
2023/01/06 08:37:26;;;;;;;15.52;3.25;;;;;;;;;;5044371;28;20075;-74
2023/01/06 08:39:52;;;;;;;15.23;2.83;;;;;;;;;;5042137;28;20064;-74
2023/01/06 08:42:18;;;;;;;17.95;2.97;;;;;;;;;;5039453;28;20480;-74
2023/01/06 08:44:45;;;;;;;13.52;2.78;;;;;;;;;;5040517;28;20378;-73
2023/01/06 08:47:11;;;;;;;11.15;2.53;;;;;;;;;;5044269;28;20085;-74
2023/01/06 08:49:37;;;;;;;11.38;2.50;;;;;;;;;;5048037;28;20048;-73
2023/01/06 08:52:03;;;;;;;8.93;2.50;;;;;;;;;;5030680;28;20099;-74
2023/01/06 08:54:29;;;;;;;10.60;2.80;;;;;;;;;;5036618;28;20179;-73
2023/01/06 08:56:56;;;;;;;9.65;2.63;;;;;;;;;;5032805;28;20068;-73
2023/01/06 08:59:22;;;;;;;10.27;2.63;;;;;;;;;;5035031;28;20510;-73
2023/01/06 09:01:48;;;;;;;6.45;2.20;;;;;;;;;;5030992;28;20047;-73
2023/01/06 09:04:14;;;;;;;10.23;4.00;;;;;;;;;;5033747;28;20524;-73
2023/01/06 09:06:42;;;;;;;12.35;2.72;;;;;;;;;;5043628;28;20049;-73
2023/01/06 09:09:08;;;;;;;10.05;2.80;;;;;;;;;;5051778;28;20044;-73
2023/01/06 09:11:34;;;;;;;14.10;3.80;;;;;;;;;;5044315;28;20041;-73
2023/01/06 09:14:00;;;;;;;12.43;2.95;;;;;;;;;;5035317;28;20132;-72
2023/01/06 09:16:26;;;;;;;10.93;2.20;;;;;;;;;;5041641;28;20510;-74
2023/01/06 09:18:52;;;;;;;13.00;2.70;;;;;;;;;;5044913;28;20452;-73
2023/01/06 09:21:19;;;;;;;12.25;2.70;;;;;;;;;;5046737;28;20150;-73
2023/01/06 09:23:46;;;;;;;11.45;2.40;;;;;;;;;;5041762;28;20375;-72
2023/01/06 09:26:12;;;;;;;13.43;2.83;;;;;;;;;;5041775;28;20053;-73
2023/01/06 09:28:39;;;;;;;12.10;3.28;;;;;;;;;;5074238;28;20041;-74
2023/01/06 09:31:06;;;;;;;12.52;3.25;;;;;;;;;;5048654;28;20095;-74
2023/01/06 09:33:32;;;;;;;16.27;2.88;;;;;;;;;;5040029;28;20111;-74
2023/01/06 09:35:58;;;;;;;14.52;3.60;;;;;;;;;;5043346;28;20553;-74
2023/01/06 09:38:25;;;;;;;17.50;2.90;;;;;;;;;;5043849;28;20484;-74
2023/01/06 09:40:58;;;;;;;13.45;3.15;;;;;;;;;;5044027;28;20049;-74
2023/01/06 09:43:37;;;;;;;12.25;2.92;;;;;;;;;;5043350;28;20049;-75
2023/01/06 09:46:05;;;;;;;19.73;3.45;;;;;;;;;;5075018;28;20450;-75
2023/01/06 09:48:34;;;;;;;15.20;4.25;;;;;;;;;;5044759;28;20049;-73
2023/01/06 09:51:02;;;;;;;12.77;3.45;;;;;;;;;;5036630;28;20063;-75
2023/01/06 09:53:31;;;;;;;13.10;3.15;;;;;;;;;;5058154;28;20503;-75
2023/01/06 09:56:01;;;;;;;16.13;3.22;;;;;;;;;;5039943;28;20566;-73
2023/01/06 09:58:40;;;;;;;11.95;2.80;;;;;;;;;;5040843;28;20128;-75
2023/01/06 10:01:15;;;;;;;12.38;2.88;;;;;;;;;;5042392;28;20049;-75
2023/01/06 10:03:42;;;;;;;11.00;3.55;;;;;;;;;;5035525;28;20049;-75
2023/01/06 10:06:08;;;;;;;10.13;3.33;;;;;;;;;;5040991;28;20088;-75
2023/01/06 10:08:46;;;;;;;13.55;2.83;;;;;;;;;;5038241;28;20037;-76
2023/01/06 10:11:24;;;;;;;13.20;2.83;;;;;;;;;;5066489;28;20489;-74
2023/01/06 10:14:12;;;;;;;12.13;2.88;;;;;;;;;;5032008;28;20065;-74
2023/01/06 10:16:50;;;;;;;18.40;3.50;;;;;;;;;;5039577;28;20434;-74
2023/01/06 10:19:16;;;;;;;9.50;2.85;;;;;;;;;;5036796;28;20049;-76
2023/01/06 10:21:45;;;;;;;8.48;2.65;;;;;;;;;;5035250;28;20041;-76
2023/01/06 10:24:23;;;;;;;12.00;3.05;;;;;;;;;;5036228;28;20036;-74
2023/01/06 10:26:57;;;;;;;13.25;3.33;;;;;;;;;;5034307;28;20162;-74
2023/01/06 10:29:23;;;;;;;;;;;;;;;;;;5032526;28;20049;-74
2023/01/06 10:31:51;;;;;;;13.02;2.63;;;;;;;;;;5035241;28;19931;-74
2023/01/06 10:34:21;;;;;;;16.50;3.67;;;;;;;;;;5033455;28;20569;-73
2023/01/06 10:36:51;;;;;;;12.35;3.72;;;;;;;;;;5032656;28;20063;-75
2023/01/06 10:39:20;;;;;;;13.70;3.70;;;;;;;;;;5033886;28;20412;-74
2023/01/06 10:41:49;;;;;;;15.38;4.00;;;;;;;;;;5030971;28;20056;-74
2023/01/06 10:44:16;;;;;;;17.33;4.07;;;;;;;;;;5034930;28;20944;-76
2023/01/06 10:46:44;;;;;;;15.98;3.60;;;;;;;;;;5039533;28;20087;-75
2023/01/06 10:49:28;;;;;;;18.00;3.38;;;;;;;;;;5035090;28;20053;-76
2023/01/06 10:52:01;;;;;;;13.95;3.08;;;;;;;;;;5030192;28;20135;-74
2023/01/06 10:54:29;;;;;;;14.52;3.22;;;;;;;;;;5033048;28;20037;-74
2023/01/06 10:56:58;;;;;;;14.05;3.72;;;;;;;;;;5035487;28;20055;-75
2023/01/06 10:59:24;;;;;;;11.25;3.30;;;;;;;;;;5034893;28;20369;-75
2023/01/06 11:01:51;;;;;;;14.23;3.40;;;;;;;;;;5033662;28;20377;-75
2023/01/06 11:04:18;;;;;;;14.48;3.40;;;;;;;;;;5034540;28;20143;-75
2023/01/06 11:06:52;;;;;;;14.65;4.15;;;;;;;;;;5032986;28;20132;-75
2023/01/06 11:09:38;;;;;;;20.35;4.68;;;;;;;;;;5050290;28;20083;-75
2023/01/06 11:12:10;;;;;;;19.70;3.95;;;;;;;;;;5061174;28;20049;-76
2023/01/06 11:14:36;;;;;;;13.93;4.03;;;;;;;;;;5033472;28;20041;-73
2023/01/06 11:17:14;;;;;;;23.88;4.75;;;;;;;;;;5034134;28;20144;-75
2023/01/06 11:19:41;;;;;;;20.10;3.95;;;;;;;;;;5034702;28;20288;-74
2023/01/06 11:22:26;;;;;;;13.20;3.78;;;;;;;;;;5047926;28;20099;-74
2023/01/06 11:24:53;;;;;;;20.67;4.00;;;;;;;;;;5037416;28;20506;-75
2023/01/06 11:27:19;;;;;;;13.20;4.50;;;;;;;;;;5033890;28;20132;-76
2023/01/06 11:29:45;;;;;;;14.93;3.58;;;;;;;;;;5034818;28;20052;-75
2023/01/06 11:32:19;;;;;;;16.02;4.10;;;;;;;;;;5031212;28;20091;-75
2023/01/06 11:34:54;;;;;;;15.38;3.80;;;;;;;;;;5035035;28;20099;-75
2023/01/06 11:37:36;;;;;;;16.63;3.42;;;;;;;;;;5040085;28;20045;-75
2023/01/06 11:40:04;;;;;;;12.88;3.20;;;;;;;;;;5033776;28;20175;-75
2023/01/06 11:42:30;;;;;;;16.17;3.55;;;;;;;;;;5047037;28;20041;-80
2023/01/06 11:44:56;;;;;;;15.05;3.50;;;;;;;;;;5041552;28;20435;-76
2023/01/06 11:47:24;;;;;;;15.32;3.20;;;;;;;;;;5044126;28;20483;-77
2023/01/06 11:49:53;;;;;;;15.57;3.40;;;;;;;;;;5044234;28;20065;-73
2023/01/06 11:52:21;;;;;;;10.00;3.80;;;;;;;;;;5056407;28;20128;-76
2023/01/06 11:54:56;;;;;;;15.85;4.22;;;;;;;;;;5051685;28;20111;-76
2023/01/06 11:57:40;;;;;;;8.93;3.08;;;;;;;;;;5042538;28;20386;-74
2023/01/06 12:00:15;;;;;;;19.13;3.75;;;;;;;;;;5036819;28;20044;-74
2023/01/06 12:03:02;;;;;;;15.93;3.55;;;;;;;;;;5052783;28;20447;-74
2023/01/06 12:05:38;;;;;;;18.70;3.67;;;;;;;;;;5051190;28;20501;-74
2023/01/06 12:08:09;;;;;;;15.73;3.38;;;;;;;;;;5033547;28;20068;-74
2023/01/06 12:10:36;;;;;;;15.70;3.97;;;;;;;;;;5033243;28;20392;-74
2023/01/06 12:13:02;;;;;;;21.10;3.58;;;;;;;;;;5043753;28;20079;-74
2023/01/06 12:15:29;;;;;;;16.92;3.92;;;;;;;;;;5036812;28;20038;-74
2023/01/06 12:18:01;;;;;;;21.08;4.72;;;;;;;;;;5047854;28;20076;-74
2023/01/06 12:20:30;;;;;;;12.43;3.33;;;;;;;;;;5040875;28;20048;-74
2023/01/06 12:22:58;;;;;;;15.88;3.08;;;;;;;;;;5038750;28;20407;-74
2023/01/06 12:25:26;;;;;;;17.42;4.70;;;;;;;;;;5043857;28;20073;-74
2023/01/06 12:27:54;;;;;;;16.17;3.75;;;;;;;;;;5036251;28;20053;-74
2023/01/06 12:30:27;;;;;;;17.17;4.03;;;;;;;;;;5041362;28;20045;-74
2023/01/06 12:32:55;;;;;;;13.93;3.47;;;;;;;;;;5034162;28;20476;-74
2023/01/06 12:35:25;;;;;;;14.77;4.85;;;;;;;;;;5036608;28;20132;-74
2023/01/06 12:37:54;;;;;;;18.35;3.67;;;;;;;;;;5044008;28;20132;-74
2023/01/06 12:40:27;;;;;;;19.63;3.80;;;;;;;;;;5033334;28;20081;-74
2023/01/06 12:43:00;;;;;;;11.70;3.47;;;;;;;;;;5040974;28;20060;-74
2023/01/06 12:45:32;;;;;;;14.45;3.30;;;;;;;;;;5033550;28;20045;-74
2023/01/06 12:47:58;;;;;;;16.33;3.70;;;;;;;;;;5036692;28;20119;-74
2023/01/06 12:50:44;;;;;;;13.68;4.22;;;;;;;;;;5043149;28;20045;-74
2023/01/06 12:53:18;;;;;;;17.30;4.00;;;;;;;;;;5033468;28;20052;-74
2023/01/06 12:55:49;;;;;;;13.30;3.50;;;;;;;;;;5042925;28;20072;-74
2023/01/06 12:58:23;;;;;;;11.85;3.67;;;;;;;;;;5038731;28;20045;-74
2023/01/06 13:01:03;;;;;;;15.32;3.55;;;;;;;;;;5064319;28;20052;-74
2023/01/06 13:03:41;;;;;;;16.75;3.33;;;;;;;;;;5033190;28;20138;-74
2023/01/06 13:06:10;;;;;;;12.52;3.40;;;;;;;;;;5036024;28;20469;-74
2023/01/06 13:08:36;;;;;;;15.80;3.88;;;;;;;;;;5047221;28;20041;-74
2023/01/06 13:11:05;;;;;;;11.52;3.00;;;;;;;;;;5035110;28;20395;-74
2023/01/06 13:13:36;;;;;;;9.50;3.13;;;;;;;;;;5033921;28;20073;-74
2023/01/06 13:16:23;;;;;;;17.05;3.65;;;;;;;;;;5039328;28;20037;-74
2023/01/06 13:18:49;;;;;;;15.70;3.25;;;;;;;;;;5030195;28;20480;-73
2023/01/06 13:21:16;;;;;;;15.70;3.70;;;;;;;;;;5032619;28;20041;-74
2023/01/06 13:23:58;;;;;;;13.30;3.35;;;;;;;;;;5036526;28;20399;-74
2023/01/06 13:26:43;;;;;;;13.60;3.50;;;;;;;;;;5039643;28;20078;-74
2023/01/06 13:29:27;;;;;;;17.10;3.42;;;;;;;;;;5034002;28;20818;-73
2023/01/06 13:31:53;;;;;;;17.25;3.90;;;;;;;;;;5066960;28;20052;-73
2023/01/06 13:34:32;;;;;;;14.10;3.10;;;;;;;;;;5038993;28;20045;-74
2023/01/06 13:37:17;;;;;;;17.35;3.53;;;;;;;;;;5040693;28;20057;-73
2023/01/06 13:40:09;;;;;;;16.25;3.75;;;;;;;;;;5036699;28;20467;-73
2023/01/06 13:42:47;;;;;;;15.88;4.30;;;;;;;;;;5036445;28;20136;-74
2023/01/06 13:45:19;;;;;;;12.95;3.53;;;;;;;;;;5032764;28;20400;-73
2023/01/06 13:47:46;;;;;;;22.52;6.75;;;;;;;;;;5031675;28;20116;-73
2023/01/06 13:50:14;;;;;;;14.88;4.32;;;;;;;;;;5038042;28;20084;-73
2023/01/06 13:52:41;;;;;;;15.20;4.28;;;;;;;;;;5029258;28;20052;-73
2023/01/06 13:55:25;;;;;;;19.15;3.70;;;;;;;;;;5031797;28;20135;-73
2023/01/06 13:57:51;;;;;;;14.68;4.13;;;;;;;;;;5038237;28;20057;-74
2023/01/06 14:00:23;;;;;;;13.90;4.00;;;;;;;;;;5038421;28;20124;-73
2023/01/06 14:02:49;;;;;;;15.82;4.40;;;;;;;;;;5053619;28;20065;-73
2023/01/06 14:05:18;;;;;;;17.60;3.80;;;;;;;;;;5066958;28;20073;-73
2023/01/06 14:07:49;;;;;;;12.57;3.38;;;;;;;;;;5038989;28;20541;-73
2023/01/06 14:10:34;;;;;;;13.77;3.30;;;;;;;;;;5030280;28;20049;-73
2023/01/06 14:13:01;;;;;;;16.67;3.78;;;;;;;;;;5029696;28;20044;-73
2023/01/06 14:15:31;;;;;;;15.93;3.80;;;;;;;;;;5035838;28;20140;-73
2023/01/06 14:18:00;;;;;;;12.48;4.05;;;;;;;;;;5036285;28;20083;-73
2023/01/06 14:20:33;;;;;;;14.40;3.50;;;;;;;;;;5039290;28;20170;-74
2023/01/06 14:23:04;;;;;;;18.40;3.63;;;;;;;;;;5044512;28;20060;-74
2023/01/06 14:25:31;;;;;;;17.17;3.58;;;;;;;;;;5043624;28;20383;-73
2023/01/06 14:28:00;;;;;;;17.42;3.45;;;;;;;;;;5033229;28;20531;-73
2023/01/06 14:30:27;;;;;;;15.73;3.58;;;;;;;;;;5033391;28;20045;-74
2023/01/06 14:33:00;;;;;;;13.27;3.95;;;;;;;;;;5045728;28;20086;-73
2023/01/06 14:35:28;;;;;;;15.60;4.13;;;;;;;;;;5047015;28;20068;-74
2023/01/06 14:37:58;;;;;;;16.33;4.07;;;;;;;;;;5043472;28;20049;-73
2023/01/06 14:40:26;;;;;;;18.52;4.13;;;;;;;;;;5048186;28;20116;-73
2023/01/06 14:42:52;;;;;;;19.75;5.28;;;;;;;;;;5032432;28;20042;-73
2023/01/06 14:45:22;;;;;;;19.00;3.90;;;;;;;;;;5035028;28;20037;-73
2023/01/06 14:47:48;;;;;;;18.75;3.50;;;;;;;;;;5046742;28;20033;-73
2023/01/06 14:50:17;;;;;;;16.60;3.88;;;;;;;;;;5041121;28;20049;-73